createdAt,value
2023-04-22T00:00:28.991Z,99.90
2023-04-22T00:05:23.948Z,99.90
2023-04-22T00:07:51.129Z,99.90
2023-04-22T00:12:45.667Z,99.90
2023-04-22T00:15:12.961Z,99.90
2023-04-22T00:20:10.821Z,99.90
2023-04-22T00:22:37.871Z,99.90
2023-04-22T00:25:05.547Z,99.90
2023-04-22T00:27:32.752Z,99.90
2023-04-22T00:29:59.888Z,99.90
2023-04-22T00:37:22.194Z,99.90
2023-04-22T00:42:17.577Z,99.90
2023-04-22T00:44:47.265Z,99.90
2023-04-22T00:49:42.335Z,99.90
2023-04-22T00:52:09.311Z,99.90
2023-04-22T00:59:31.588Z,99.90
2023-04-22T01:04:26.220Z,99.90
2023-04-22T01:06:56.413Z,99.90
2023-04-22T01:09:23.441Z,99.90
2023-04-22T01:11:50.695Z,99.90
2023-04-22T01:14:18.066Z,99.90
2023-04-22T01:16:45.918Z,99.90
2023-04-22T01:21:41.605Z,99.90
2023-04-22T01:26:37.295Z,99.90
2023-04-22T01:29:05.474Z,99.90
2023-04-22T01:31:33.336Z,99.90
2023-04-22T01:38:56.295Z,99.90
2023-04-22T01:41:23.416Z,99.90
2023-04-22T01:43:53.349Z,99.90
2023-04-22T01:46:20.507Z,99.90
2023-04-22T01:48:51.425Z,99.90
2023-04-22T01:51:20.816Z,99.90
2023-04-22T01:53:48.758Z,99.90
2023-04-22T01:56:16.282Z,99.90
2023-04-22T01:58:44.048Z,99.90
2023-04-22T02:01:12.639Z,99.90
2023-04-22T02:03:39.657Z,99.90
2023-04-22T02:06:07.699Z,99.90
2023-04-22T02:08:34.806Z,99.90
2023-04-22T02:11:02.165Z,99.90
2023-04-22T02:13:40.951Z,99.90
2023-04-22T02:16:08.699Z,99.90
2023-04-22T02:18:35.965Z,99.90
2023-04-22T02:21:05.433Z,99.90
2023-04-22T02:23:32.712Z,99.90
2023-04-22T02:25:59.681Z,99.90
2023-04-22T02:28:26.750Z,99.90
2023-04-22T02:30:53.757Z,99.90
2023-04-22T02:33:23.328Z,99.90
2023-04-22T02:35:51.812Z,99.90
2023-04-22T02:38:19.923Z,99.90
2023-04-22T02:40:47.057Z,99.90
2023-04-22T02:43:14.425Z,99.90
2023-04-22T02:48:09.262Z,99.90
2023-04-22T02:50:36.583Z,99.90
2023-04-22T02:53:03.664Z,99.90
2023-04-22T02:55:30.622Z,99.90
2023-04-22T02:57:57.684Z,99.90
2023-04-22T03:00:24.761Z,99.90
2023-04-22T03:02:52.124Z,99.90
2023-04-22T03:07:50.409Z,99.90
2023-04-22T03:10:17.592Z,99.90
2023-04-22T03:15:12.977Z,99.90
2023-04-22T03:22:38.954Z,99.90
2023-04-22T03:27:35.786Z,99.90
2023-04-22T03:30:04.658Z,99.90
2023-04-22T03:32:31.721Z,99.90
2023-04-22T03:35:16.609Z,99.90
2023-04-22T03:37:46.233Z,99.90
2023-04-22T03:42:45.170Z,99.90
2023-04-22T03:45:12.305Z,99.90
2023-04-22T03:47:44.688Z,99.90
2023-04-22T03:50:21.311Z,99.90
2023-04-22T03:52:50.396Z,99.90
2023-04-22T03:57:50.813Z,99.90
2023-04-22T04:00:17.952Z,99.90
2023-04-22T04:02:51.987Z,99.90
2023-04-22T04:05:24.599Z,99.90
2023-04-22T04:07:51.776Z,99.90
2023-04-22T04:10:18.798Z,99.90
2023-04-22T04:15:13.514Z,99.90
2023-04-22T04:22:37.648Z,99.90
2023-04-22T04:25:06.894Z,99.90
2023-04-22T04:30:07.693Z,99.90
2023-04-22T04:32:43.017Z,99.90
2023-04-22T04:37:44.603Z,99.90
2023-04-22T04:40:14.805Z,99.90
2023-04-22T04:42:47.984Z,99.90
2023-04-22T04:45:22.422Z,99.90
2023-04-22T04:57:52.033Z,99.90
2023-04-22T05:00:19.611Z,99.90
2023-04-22T05:02:47.161Z,99.90
2023-04-22T05:05:14.743Z,99.90
2023-04-22T05:07:43.716Z,99.90
2023-04-22T05:10:12.541Z,99.90
2023-04-22T05:12:40.915Z,99.90
2023-04-22T05:15:11.361Z,99.90
2023-04-22T05:20:07.822Z,99.90
2023-04-22T05:22:38.626Z,99.90
2023-04-22T05:25:06.211Z,99.90
2023-04-22T05:30:02.595Z,99.90
2023-04-22T05:32:31.971Z,99.90
2023-04-22T05:34:59.062Z,99.90
2023-04-22T05:39:53.512Z,99.90
2023-04-22T05:42:21.299Z,99.90
2023-04-22T05:44:49.260Z,99.90
2023-04-22T05:47:16.933Z,99.90
2023-04-22T05:49:44.258Z,99.90
2023-04-22T05:52:20.798Z,99.90
2023-04-22T05:55:10.377Z,99.90
2023-04-22T05:57:37.974Z,99.90
2023-04-22T06:00:10.587Z,99.90
2023-04-22T06:02:40.691Z,99.90
2023-04-22T06:05:08.810Z,99.90
2023-04-22T06:07:36.258Z,99.90
2023-04-22T06:10:07.027Z,99.90
2023-04-22T06:15:02.227Z,99.90
2023-04-22T06:17:29.270Z,99.90
2023-04-22T06:19:57.000Z,99.90
2023-04-22T06:22:23.998Z,99.90
2023-04-22T06:24:51.053Z,99.90
2023-04-22T06:27:18.028Z,99.90
2023-04-22T06:29:45.311Z,99.90
2023-04-22T06:32:13.151Z,99.90
2023-04-22T06:34:42.311Z,99.90
2023-04-22T06:37:09.532Z,99.90
2023-04-22T06:39:36.795Z,99.90
2023-04-22T06:42:13.049Z,99.90
2023-04-22T06:45:12.894Z,99.90
2023-04-22T06:47:59.077Z,99.90
2023-04-22T06:50:36.516Z,99.90
2023-04-22T06:55:31.029Z,99.90
2023-04-22T07:00:26.855Z,99.90
2023-04-22T07:02:54.109Z,99.90
2023-04-22T07:07:49.367Z,99.90
2023-04-22T07:13:16.615Z,99.90
2023-04-22T07:20:40.800Z,99.90
2023-04-22T07:23:07.942Z,99.90
2023-04-22T07:28:02.682Z,99.90
2023-04-22T07:35:25.018Z,99.90
2023-04-22T07:42:47.330Z,99.90
2023-04-22T07:47:42.260Z,99.90
2023-04-22T07:50:09.787Z,99.90
2023-04-22T07:55:04.930Z,99.90
2023-04-22T08:00:03.645Z,99.90
2023-04-22T08:05:07.569Z,99.90
2023-04-22T08:07:34.616Z,99.90
2023-04-22T08:12:29.098Z,99.90
2023-04-22T08:14:57.967Z,99.90
2023-04-22T08:17:25.191Z,99.90
2023-04-22T08:24:47.166Z,99.90
2023-04-22T08:27:14.287Z,99.90
2023-04-22T08:32:09.566Z,99.90
2023-04-22T08:34:37.210Z,99.90
2023-04-22T08:39:31.693Z,99.90
2023-04-22T08:44:26.923Z,99.90
2023-04-22T08:49:25.179Z,99.90
2023-04-22T08:51:53.506Z,99.90
2023-04-22T08:56:51.794Z,99.90
2023-04-22T08:59:20.707Z,99.90
2023-04-22T09:01:53.531Z,99.90
2023-04-22T09:06:48.349Z,99.90
2023-04-22T09:11:42.943Z,99.90
2023-04-22T09:14:10.169Z,99.90
2023-04-22T09:16:47.940Z,99.90
2023-04-22T09:19:15.753Z,99.90
2023-04-22T09:21:43.240Z,99.90
2023-04-22T09:24:12.162Z,99.90
2023-04-22T09:26:43.950Z,99.90
2023-04-22T09:29:16.350Z,99.90
2023-04-22T09:31:48.829Z,99.90
2023-04-22T09:34:15.979Z,99.90
2023-04-22T09:36:44.056Z,99.90
2023-04-22T09:41:41.142Z,99.90
2023-04-22T09:44:16.722Z,99.90
2023-04-22T09:46:44.841Z,99.90
2023-04-22T09:49:12.261Z,99.90
2023-04-22T09:51:42.590Z,99.90
2023-04-22T09:56:52.508Z,99.90
2023-04-22T09:59:23.718Z,99.90
2023-04-22T10:02:07.253Z,99.90
2023-04-22T10:04:34.675Z,99.90
2023-04-22T10:11:59.623Z,99.90
2023-04-22T10:14:27.078Z,99.90
2023-04-22T10:17:00.309Z,96.30
2023-04-22T10:21:58.560Z,99.90
2023-04-22T10:24:35.105Z,99.90
2023-04-22T10:27:08.592Z,99.90
2023-04-22T10:29:43.396Z,99.90
2023-04-22T10:32:11.063Z,99.90
2023-04-22T10:37:11.875Z,99.90
2023-04-22T10:39:42.818Z,99.90
2023-04-22T10:42:17.518Z,99.90
2023-04-22T10:45:01.810Z,99.90
2023-04-22T10:47:39.054Z,99.90
2023-04-22T10:50:26.510Z,99.90
2023-04-22T10:52:58.372Z,99.90
2023-04-22T10:55:26.294Z,99.90
2023-04-22T10:57:54.278Z,94.50
2023-04-22T11:00:45.671Z,91.90
2023-04-22T11:03:26.041Z,98.90
2023-04-22T11:06:17.941Z,93.20
2023-04-22T11:08:50.484Z,99.90
2023-04-22T11:11:19.150Z,93.20
2023-04-22T11:13:50.655Z,93.10
2023-04-22T11:16:19.826Z,94.20
2023-04-22T11:18:48.236Z,99.40
2023-04-22T11:21:15.622Z,99.90
2023-04-22T11:23:54.300Z,93.50
2023-04-22T11:26:35.215Z,95.50
2023-04-22T11:29:02.424Z,89.40
2023-04-22T11:31:29.662Z,98.60
2023-04-22T11:34:00.453Z,83.00
2023-04-22T11:36:27.779Z,95.70
2023-04-22T11:38:56.395Z,95.20
2023-04-22T11:46:30.420Z,82.80
2023-04-22T11:49:16.715Z,93.00
2023-04-22T11:51:55.821Z,93.00
2023-04-22T11:54:37.864Z,74.00
2023-04-22T11:57:15.508Z,85.40
2023-04-22T11:59:43.025Z,79.90
2023-04-22T12:04:42.192Z,82.40
2023-04-22T12:07:09.266Z,75.40
2023-04-22T12:09:36.373Z,82.40
2023-04-22T12:12:04.820Z,72.70
2023-04-22T12:14:35.862Z,90.90
2023-04-22T12:17:09.693Z,90.90
2023-04-22T12:19:37.918Z,66.70
2023-04-22T12:22:05.107Z,84.30
2023-04-22T12:27:00.051Z,84.30
2023-04-22T12:29:31.000Z,67.70
2023-04-22T12:36:52.989Z,90.60
2023-04-22T12:41:50.943Z,88.40
2023-04-22T12:44:17.916Z,87.20
2023-04-22T12:46:45.267Z,89.60
2023-04-22T12:49:14.441Z,82.70
2023-04-22T12:54:10.656Z,88.50
2023-04-22T12:56:37.670Z,87.80
2023-04-22T13:01:33.756Z,85.00
2023-04-22T13:04:01.935Z,76.00
2023-04-22T13:08:56.486Z,87.40
2023-04-22T13:11:24.617Z,87.40
2023-04-22T13:21:15.272Z,89.60
2023-04-22T13:26:10.616Z,90.90
2023-04-22T13:31:05.298Z,88.80
2023-04-22T13:33:32.293Z,91.80
2023-04-22T13:35:59.358Z,90.70
2023-04-22T13:45:49.252Z,85.10
2023-04-22T13:48:16.294Z,85.70
2023-04-22T13:53:11.852Z,75.60
2023-04-22T13:55:39.999Z,94.00
2023-04-22T13:58:08.317Z,93.00
2023-04-22T14:03:03.338Z,90.60
2023-04-22T14:05:30.875Z,92.70
2023-04-22T14:07:59.202Z,92.80
2023-04-22T14:10:28.381Z,92.80
2023-04-22T14:12:55.844Z,93.90
2023-04-22T14:15:22.845Z,96.30
2023-04-22T14:17:49.975Z,95.60
2023-04-22T14:20:19.353Z,96.00
2023-04-22T14:27:41.580Z,98.10
2023-04-22T14:30:09.238Z,98.50
2023-04-22T14:35:04.772Z,98.70
2023-04-22T14:37:32.235Z,98.70
2023-04-22T14:39:59.256Z,99.10
2023-04-22T14:42:26.364Z,99.90
2023-04-22T14:44:53.636Z,99.90
2023-04-22T14:47:20.577Z,99.90
2023-04-22T14:49:47.610Z,99.90
2023-04-22T14:54:42.161Z,99.90
2023-04-22T14:57:09.148Z,99.70
2023-04-22T14:59:36.425Z,99.70
2023-04-22T15:04:32.663Z,99.90
2023-04-22T15:07:00.090Z,99.90
2023-04-22T15:09:27.885Z,98.00
2023-04-22T15:11:56.576Z,98.20
2023-04-22T15:14:23.720Z,99.90
2023-04-22T15:16:50.730Z,99.90
2023-04-22T15:19:17.669Z,99.90
2023-04-22T15:21:44.712Z,99.90
2023-04-22T15:26:40.572Z,99.90
2023-04-22T15:29:07.794Z,99.90
2023-04-22T15:31:35.072Z,99.90
2023-04-22T15:34:02.031Z,99.90
2023-04-22T15:36:30.059Z,99.90
2023-04-22T15:38:57.095Z,99.10
2023-04-22T15:43:53.150Z,97.80
2023-04-22T15:46:20.785Z,99.90
2023-04-22T15:48:48.859Z,99.90
2023-04-22T15:51:17.110Z,97.30
2023-04-22T15:53:47.256Z,99.70
2023-04-22T15:56:15.361Z,99.90
2023-04-22T15:58:42.304Z,99.90
2023-04-22T16:03:48.326Z,99.90
2023-04-22T16:11:15.255Z,97.30
2023-04-22T16:13:42.526Z,98.30
2023-04-22T16:16:09.835Z,95.90
2023-04-22T16:18:37.656Z,95.10
2023-04-22T16:21:05.878Z,97.50
2023-04-22T16:23:34.500Z,96.60
2023-04-22T16:26:02.806Z,97.60
2023-04-22T16:28:29.853Z,94.90
2023-04-22T16:30:56.894Z,97.50
2023-04-22T16:33:25.128Z,97.30
2023-04-22T16:35:52.104Z,99.00
2023-04-22T16:38:19.131Z,96.60
2023-04-22T16:40:46.359Z,99.60
2023-04-22T16:43:13.282Z,99.90
2023-04-22T16:45:40.573Z,96.50
2023-04-22T16:48:07.595Z,96.80
2023-04-22T16:50:34.636Z,94.40
2023-04-22T16:53:01.810Z,99.50
2023-04-22T16:55:28.763Z,98.90
2023-04-22T16:57:56.052Z,95.50
2023-04-22T17:00:24.094Z,93.50
2023-04-22T17:05:18.719Z,94.80
2023-04-22T17:07:45.826Z,97.30
2023-04-22T17:10:12.760Z,95.10
2023-04-22T17:12:40.003Z,95.50
2023-04-22T17:15:08.223Z,86.00
2023-04-22T17:17:35.669Z,95.10
2023-04-22T17:20:02.748Z,95.30
2023-04-22T17:22:29.907Z,98.00
2023-04-22T17:24:58.760Z,97.60
2023-04-22T17:27:25.931Z,94.10
2023-04-22T17:29:53.197Z,92.30
2023-04-22T17:32:20.265Z,95.20
2023-04-22T17:34:50.397Z,94.30
2023-04-22T17:37:17.542Z,95.50
2023-04-22T17:39:44.517Z,94.00
2023-04-22T17:42:12.021Z,97.20
2023-04-22T17:44:39.371Z,95.20
2023-04-22T17:47:07.455Z,95.10
2023-04-22T17:49:34.728Z,95.30
2023-04-22T17:52:03.026Z,93.90
2023-04-22T17:54:30.088Z,95.40
2023-04-22T17:56:57.126Z,94.90
2023-04-22T17:59:27.194Z,88.50
2023-04-22T18:01:54.306Z,95.40
2023-04-22T18:04:21.558Z,98.30
2023-04-22T18:06:51.541Z,99.50
2023-04-22T18:09:18.642Z,99.30
2023-04-22T18:11:45.789Z,99.90
2023-04-22T18:14:12.718Z,99.30
2023-04-22T18:16:39.679Z,98.30
2023-04-22T18:19:06.934Z,99.90
2023-04-22T18:21:34.507Z,99.00
2023-04-22T18:24:02.644Z,98.60
2023-04-22T18:26:29.632Z,99.90
2023-04-22T18:28:56.643Z,99.90
2023-04-22T18:33:51.086Z,98.10
2023-04-22T18:36:18.602Z,94.40
2023-04-22T18:38:45.745Z,99.90
2023-04-22T18:41:13.608Z,99.90
2023-04-22T18:43:40.924Z,99.90
2023-04-22T18:48:35.622Z,99.90
2023-04-22T18:51:02.600Z,99.90
2023-04-22T18:53:29.623Z,99.90
2023-04-22T18:55:56.615Z,99.90
2023-04-22T18:58:24.513Z,99.90
2023-04-22T19:00:51.575Z,99.90
2023-04-22T19:05:46.862Z,99.90
2023-04-22T19:08:17.362Z,99.90
2023-04-22T19:13:22.244Z,99.90
2023-04-22T19:15:56.173Z,99.90
2023-04-22T19:18:23.158Z,99.90
2023-04-22T19:20:50.965Z,99.90
2023-04-22T19:23:18.175Z,99.90
2023-04-22T19:25:45.787Z,99.90
2023-04-22T19:28:13.124Z,99.90
2023-04-22T19:30:40.184Z,99.90
2023-04-22T19:33:07.443Z,99.90
2023-04-22T19:35:34.399Z,99.90
2023-04-22T19:38:01.408Z,99.90
2023-04-22T19:45:27.036Z,99.90
2023-04-22T19:47:54.303Z,99.90
2023-04-22T19:50:21.846Z,99.90
2023-04-22T19:52:50.920Z,99.90
2023-04-22T19:55:21.777Z,99.90
2023-04-22T19:57:52.558Z,99.90
2023-04-22T20:00:20.440Z,99.90
2023-04-22T20:02:47.859Z,99.90
2023-04-22T20:05:15.448Z,99.90
2023-04-22T20:07:44.434Z,99.90
2023-04-22T20:10:11.732Z,99.90
2023-04-22T20:12:38.744Z,99.90
2023-04-22T20:15:06.739Z,99.90
2023-04-22T20:17:38.450Z,99.90
2023-04-22T20:20:07.278Z,99.90
2023-04-22T20:22:34.991Z,99.90
2023-04-22T20:25:05.448Z,99.90
2023-04-22T20:27:34.427Z,99.90
2023-04-22T20:30:02.194Z,99.90
2023-04-22T20:32:29.613Z,99.90
2023-04-22T20:34:58.503Z,99.90
2023-04-22T20:37:27.128Z,99.90
2023-04-22T20:39:54.752Z,99.90
2023-04-22T20:42:22.035Z,99.90
2023-04-22T20:44:49.019Z,99.90
2023-04-22T20:47:16.471Z,99.90
2023-04-22T20:49:44.019Z,99.90
2023-04-22T20:52:12.357Z,99.90
2023-04-22T20:54:40.292Z,99.90
2023-04-22T20:57:08.174Z,99.90
2023-04-22T20:59:35.898Z,99.90
2023-04-22T21:02:06.618Z,99.90
2023-04-22T21:04:34.631Z,99.90
2023-04-22T21:07:07.182Z,99.90
2023-04-22T21:09:34.622Z,99.90
2023-04-22T21:12:02.492Z,99.90
2023-04-22T21:14:29.842Z,99.90
2023-04-22T21:17:35.857Z,99.90
2023-04-22T21:20:09.237Z,99.90
2023-04-22T21:22:37.793Z,99.90
2023-04-22T21:25:05.987Z,99.90
2023-04-22T21:27:33.117Z,99.90
2023-04-22T21:30:00.865Z,99.90
2023-04-22T21:32:29.404Z,99.90
2023-04-22T21:34:56.783Z,99.90
2023-04-22T21:37:24.397Z,99.90
2023-04-22T21:39:51.438Z,99.90
2023-04-22T21:42:18.494Z,99.90
2023-04-22T21:44:49.692Z,99.90
2023-04-22T21:47:17.128Z,99.90
2023-04-22T21:49:45.875Z,99.90
2023-04-22T21:52:12.813Z,99.90
2023-04-22T21:54:39.957Z,99.90
2023-04-22T21:57:07.105Z,99.90
2023-04-22T21:59:34.177Z,99.90
2023-04-22T22:04:28.854Z,99.90
2023-04-22T22:06:56.087Z,99.90
2023-04-22T22:09:23.034Z,99.90
2023-04-22T22:11:49.924Z,99.90
2023-04-22T22:19:11.621Z,99.90
2023-04-22T22:21:38.706Z,99.90
2023-04-22T22:24:06.057Z,99.90
2023-04-22T22:26:33.061Z,99.90
2023-04-22T22:28:59.987Z,99.90
2023-04-22T22:31:27.661Z,99.90
2023-04-22T22:33:55.265Z,99.90
2023-04-22T22:36:22.228Z,99.90
2023-04-22T22:38:49.236Z,99.90
2023-04-22T22:41:16.197Z,99.90
2023-04-22T22:46:10.771Z,99.90
2023-04-22T22:48:38.149Z,99.90
2023-04-22T22:51:05.135Z,99.90
2023-04-22T22:53:34.235Z,99.90
2023-04-22T22:56:01.167Z,99.90
2023-04-22T22:58:28.305Z,99.90
2023-04-22T23:00:55.358Z,99.90
2023-04-22T23:03:22.596Z,99.90
2023-04-22T23:05:49.702Z,99.90
2023-04-22T23:08:16.826Z,99.90
2023-04-22T23:10:43.864Z,99.90
2023-04-22T23:13:10.875Z,99.90
2023-04-22T23:15:37.950Z,99.90
2023-04-22T23:18:05.064Z,99.90
2023-04-22T23:20:32.765Z,99.90
2023-04-22T23:23:01.554Z,99.90
2023-04-22T23:27:56.691Z,99.90
2023-04-22T23:30:24.321Z,99.90
2023-04-22T23:32:52.115Z,99.90
2023-04-22T23:35:20.488Z,99.90
2023-04-22T23:40:18.086Z,99.90
2023-04-22T23:42:45.016Z,99.90
2023-04-22T23:45:12.377Z,99.90
2023-04-22T23:47:39.619Z,99.90
2023-04-22T23:50:07.514Z,99.90
2023-04-22T23:52:40.611Z,99.90
2023-04-22T23:55:13.846Z,99.90
2023-04-22T23:57:41.114Z,99.90
